Time;durP1;ratioP1;P1;durP2;ratioP2;P2;SDS_P1;SDS_P2;PMS_P1;PMS_P2;Temp;Humidity;BMP_temperature;BMP_pressure;BME280_temperature;BME280_humidity;BME280_pressure;Samples;Min_cycle;Max_cycle;Signal;HPM_P1;HPM_P2
2022/10/29 00:00:06;;;;;;;381.80;209.65;;;;;;;11.89;67.54;100785.81;337241;29;875;-78
2022/10/29 00:00:18;;;;;;;383.77;213.68;;;;;;;11.89;67.66;100785.81;339224;29;1199;-78
2022/10/29 00:00:28;;;;;;;384.13;214.50;;;;;;;11.89;67.65;100791.94;342816;28;1462;-78
2022/10/29 00:00:38;;;;;;;388.35;218.85;;;;;;;11.89;67.49;100791.06;340928;29;1338;-78
2022/10/29 00:00:52;;;;;;;391.67;222.77;;;;;;;11.90;67.68;100790.16;344610;28;1370;-78
2022/10/29 00:01:03;;;;;;;392.98;226.23;;;;;;;11.88;67.80;100782.34;344841;28;1702;-78
2022/10/29 00:01:13;;;;;;;391.10;225.98;;;;;;;11.88;67.76;100784.09;344963;28;909;-78
2022/10/29 00:01:24;;;;;;;388.97;222.77;;;;;;;11.88;67.67;100784.09;344989;28;1226;-78
2022/10/29 00:01:34;;;;;;;391.38;222.13;;;;;;;11.88;67.68;100789.34;342171;28;1295;-78
2022/10/29 00:01:44;;;;;;;389.53;219.07;;;;;;;11.85;67.88;100785.03;340669;28;867;-78
2022/10/29 00:01:55;;;;;;;388.40;218.07;;;;;;;11.86;67.59;100788.53;339702;29;1343;-78
2022/10/29 00:02:05;;;;;;;388.23;221.80;;;;;;;11.83;67.94;100788.59;342094;28;1103;-78
2022/10/29 00:02:16;;;;;;;387.23;220.17;;;;;;;11.82;67.90;100790.38;345087;28;1280;-78
2022/10/29 00:02:26;;;;;;;388.88;219.75;;;;;;;11.80;67.80;100786.06;343375;28;1323;-78
2022/10/29 00:02:36;;;;;;;386.40;215.67;;;;;;;11.82;67.88;100790.38;339631;29;1189;-78
2022/10/29 00:02:47;;;;;;;387.20;219.85;;;;;;;11.79;68.15;100785.22;339454;28;1299;-78
2022/10/29 00:02:57;;;;;;;386.70;223.63;;;;;;;11.79;68.30;100784.34;340149;28;1773;-78
2022/10/29 00:03:08;;;;;;;386.52;221.77;;;;;;;11.81;68.34;100787.78;339513;29;1452;-78
2022/10/29 00:03:18;;;;;;;389.57;222.67;;;;;;;11.81;68.02;100785.16;338271;29;1984;-78
2022/10/29 00:03:29;;;;;;;393.90;222.73;;;;;;;11.81;68.10;100782.53;339202;29;1003;-79
2022/10/29 00:03:40;;;;;;;396.74;223.66;;;;;;;11.81;68.11;100787.78;338505;29;913;-78
2022/10/29 00:03:51;;;;;;;402.33;228.97;;;;;;;11.82;68.25;100784.25;335763;29;1286;-78
2022/10/29 00:04:01;;;;;;;399.40;225.17;;;;;;;11.80;68.06;100791.31;335125;29;1307;-78
2022/10/29 00:04:11;;;;;;;397.93;223.37;;;;;;;11.79;68.48;100785.22;332986;29;1576;-78
2022/10/29 00:04:22;;;;;;;396.10;217.27;;;;;;;11.81;68.29;100790.41;333159;29;1344;-78
2022/10/29 00:04:32;;;;;;;399.45;219.10;;;;;;;11.81;68.24;100793.03;327375;29;3540;-79
2022/10/29 00:04:43;;;;;;;398.37;218.13;;;;;;;11.81;68.24;100790.41;325753;29;2882;-79
2022/10/29 00:04:53;;;;;;;399.45;216.50;;;;;;;11.81;68.26;100787.78;324582;30;1232;-78
2022/10/29 00:05:04;;;;;;;400.23;218.87;;;;;;;11.83;68.20;100785.97;328689;29;1723;-78
2022/10/29 00:05:14;;;;;;;398.08;216.70;;;;;;;11.81;68.50;100791.28;326952;30;3139;-78
2022/10/29 00:05:24;;;;;;;393.13;214.73;;;;;;;11.83;68.28;100788.59;324721;30;1010;-78
2022/10/29 00:05:35;;;;;;;393.67;213.40;;;;;;;11.82;68.45;100789.50;323430;30;1757;-78
2022/10/29 00:06:05;;;;;;;393.43;209.97;;;;;;;11.81;68.52;100793.91;325643;30;1287;-79
2022/10/29 00:06:15;;;;;;;388.80;204.70;;;;;;;11.80;68.44;100786.94;327501;30;1566;-78
2022/10/29 00:06:27;;;;;;;390.92;202.68;;;;;;;11.81;68.54;100787.78;325374;29;1886;-78
2022/10/29 00:06:37;;;;;;;393.33;206.68;;;;;;;11.82;68.29;100785.13;322526;30;870;-78
2022/10/29 00:06:47;;;;;;;395.77;215.20;;;;;;;11.82;68.28;100792.13;321948;30;2391;-78
2022/10/29 00:06:58;;;;;;;396.47;218.10;;;;;;;11.80;68.32;100786.06;323348;30;2413;-78
2022/10/29 00:07:08;;;;;;;396.73;221.98;;;;;;;11.80;68.54;100794.78;322097;30;1208;-78
2022/10/29 00:07:19;;;;;;;396.73;221.57;;;;;;;11.79;68.39;100792.22;327976;30;2310;-78
2022/10/29 00:07:29;;;;;;;396.35;219.98;;;;;;;11.78;68.33;100787.88;327707;30;2691;-78
2022/10/29 00:07:39;;;;;;;398.57;217.17;;;;;;;11.81;68.48;100793.03;323372;30;1333;-78
2022/10/29 00:07:50;;;;;;;402.97;219.53;;;;;;;11.81;68.42;100787.78;323121;30;1814;-78
2022/10/29 00:08:00;;;;;;;401.90;217.90;;;;;;;11.82;68.47;100797.38;322520;30;1217;-78
2022/10/29 00:08:11;;;;;;;399.70;218.37;;;;;;;11.81;68.48;100790.41;320627;30;2259;-78
2022/10/29 00:08:21;;;;;;;399.83;218.40;;;;;;;11.81;68.64;100796.53;316540;31;1434;-78
2022/10/29 00:08:33;;;;;;;402.03;216.97;;;;;;;11.83;68.36;100791.22;314998;31;2825;-78
2022/10/29 00:08:43;;;;;;;398.73;217.70;;;;;;;11.83;68.47;100792.09;312989;31;2915;-78
2022/10/29 00:08:54;;;;;;;396.20;211.88;;;;;;;11.83;68.57;100785.97;310976;31;1238;-79
2022/10/29 00:09:04;;;;;;;395.80;211.57;;;;;;;11.83;68.34;100785.97;307482;31;3348;-78
2022/10/29 00:09:15;;;;;;;395.63;211.75;;;;;;;11.81;68.48;100788.66;306220;31;3233;-78
2022/10/29 00:09:25;;;;;;;400.30;217.30;;;;;;;11.82;68.49;100789.50;306604;32;1311;-78
2022/10/29 00:09:35;;;;;;;400.65;220.15;;;;;;;11.81;68.64;100793.91;308087;32;3157;-78
2022/10/29 00:09:46;;;;;;;403.30;222.73;;;;;;;11.80;68.42;100800.03;305600;32;3150;-78
2022/10/29 00:09:56;;;;;;;399.60;220.10;;;;;;;11.80;68.60;100791.31;304295;32;2486;-78
2022/10/29 00:10:07;;;;;;;397.67;217.73;;;;;;;11.79;68.40;100786.97;305111;32;1213;-78
2022/10/29 00:10:18;;;;;;;394.15;212.25;;;;;;;11.77;68.55;100786.16;298713;32;2181;-78
2022/10/29 00:10:28;;;;;;;393.10;212.48;;;;;;;11.79;68.64;100792.22;297893;32;2805;-79
2022/10/29 00:10:39;;;;;;;395.60;216.00;;;;;;;11.79;68.58;100790.44;301270;32;968;-78
2022/10/29 00:10:49;;;;;;;396.65;224.82;;;;;;;11.80;68.58;100788.69;300615;32;4432;-79
2022/10/29 00:11:09;;;;;;;400.00;231.57;;;;;;;11.82;68.58;100794.75;297475;32;4624;-79
2022/10/29 00:11:20;;;;;;;405.60;233.18;;;;;;;11.83;68.30;100788.59;293284;33;5304;-78
2022/10/29 00:11:30;;;;;;;399.73;224.68;;;;;;;11.86;68.53;100788.53;290925;33;5198;-78
2022/10/29 00:11:41;;;;;;;398.63;221.13;;;;;;;11.87;68.37;100792.88;290397;34;1393;-79
2022/10/29 00:11:51;;;;;;;394.63;220.88;;;;;;;11.86;68.42;100788.53;289404;34;1267;-79
2022/10/29 00:12:01;;;;;;;394.37;219.80;;;;;;;11.87;68.21;100793.72;287856;34;4721;-79
2022/10/29 00:12:12;;;;;;;392.77;214.90;;;;;;;11.88;68.20;100791.97;285931;34;3556;-78
2022/10/29 00:12:22;;;;;;;393.33;213.77;;;;;;;11.86;68.50;100784.13;284662;34;1919;-79
2022/10/29 00:12:35;;;;;;;395.30;216.48;;;;;;;11.86;68.31;100791.16;285652;34;3221;-78
2022/10/29 00:12:45;;;;;;;394.20;215.65;;;;;;;11.85;68.23;100789.44;283743;34;4480;-79
2022/10/29 00:12:59;;;;;;;393.60;214.38;;;;;;;11.84;68.40;100787.72;281973;35;905;-79
2022/10/29 00:13:09;;;;;;;392.50;217.43;;;;;;;11.82;68.54;100790.38;283801;34;1310;-78
2022/10/29 00:13:20;;;;;;;389.73;215.60;;;;;;;11.81;68.42;100785.16;283405;34;6495;-78
2022/10/29 00:13:30;;;;;;;393.75;213.57;;;;;;;11.78;68.40;100783.47;282153;34;7680;-78
2022/10/29 00:13:41;;;;;;;394.27;216.10;;;;;;;11.77;68.42;100787.00;277310;35;3625;-77
2022/10/29 00:13:53;;;;;;;395.65;216.00;;;;;;;11.77;68.48;100791.41;276154;35;3316;-78
2022/10/29 00:14:03;;;;;;;390.48;205.40;;;;;;;11.78;68.49;100793.13;275388;35;6112;-78
2022/10/29 00:14:14;;;;;;;389.23;197.50;;;;;;;11.76;68.70;100785.25;272649;35;6500;-78
2022/10/29 00:14:25;;;;;;;387.90;194.57;;;;;;;11.76;68.52;100789.63;269918;36;3618;-78
2022/10/29 00:14:35;;;;;;;385.70;201.88;;;;;;;11.73;68.67;100789.72;270632;36;5482;-78
2022/10/29 00:14:46;;;;;;;388.97;214.47;;;;;;;11.73;68.65;100787.97;270326;36;5603;-78
2022/10/29 00:14:56;;;;;;;389.52;218.70;;;;;;;11.73;68.72;100784.47;271038;36;8614;-79
2022/10/29 00:15:07;;;;;;;389.25;219.38;;;;;;;11.75;68.76;100793.16;270692;36;1219;-79
2022/10/29 00:15:18;;;;;;;388.60;220.68;;;;;;;11.74;68.53;100791.44;271246;35;9934;-79
2022/10/29 00:17:04;;;;;;;370.71;191.33;;;;;;;11.69;68.56;100791.59;2503929;27;20265;-78
2022/10/29 00:17:14;;;;;;;383.50;200.27;;;;;;;11.68;68.72;100789.00;353066;28;1359;-77
2022/10/29 00:17:25;;;;;;;387.47;207.13;;;;;;;11.70;68.55;100790.66;351906;28;811;-77
2022/10/29 00:17:35;;;;;;;386.80;211.45;;;;;;;11.71;68.42;100786.28;348864;28;1346;-78
2022/10/29 00:17:45;;;;;;;386.57;211.03;;;;;;;11.73;68.66;100787.97;347713;28;805;-78
2022/10/29 00:17:56;;;;;;;386.73;204.52;;;;;;;11.70;68.57;100785.41;347757;28;897;-78
2022/10/29 00:18:06;;;;;;;389.40;203.17;;;;;;;11.71;68.46;100788.91;347532;28;1293;-77
2022/10/29 00:18:18;;;;;;;391.05;206.02;;;;;;;11.71;68.35;100791.53;348981;28;1219;-78
2022/10/29 00:18:29;;;;;;;388.98;207.68;;;;;;;11.71;68.75;100787.13;347595;28;1251;-78
2022/10/29 00:18:39;;;;;;;387.73;207.73;;;;;;;11.72;68.40;100788.00;346765;28;1493;-77
2022/10/29 00:18:50;;;;;;;388.48;204.45;;;;;;;11.70;68.72;100785.41;347649;28;1277;-77
2022/10/29 00:19:00;;;;;;;391.07;211.13;;;;;;;11.71;68.91;100792.38;350325;28;1236;-78
2022/10/29 00:19:10;;;;;;;391.10;216.40;;;;;;;11.71;68.73;100789.75;351748;28;1629;-78
2022/10/29 00:19:21;;;;;;;389.23;221.27;;;;;;;11.71;68.67;100786.28;348900;28;1462;-77
2022/10/29 00:19:31;;;;;;;386.58;220.73;;;;;;;11.69;68.62;100782.88;346400;28;1325;-78
2022/10/29 00:19:42;;;;;;;383.60;213.00;;;;;;;11.71;68.70;100786.28;350349;28;1167;-77
2022/10/29 00:19:52;;;;;;;389.67;211.63;;;;;;;11.71;68.67;100787.13;350390;28;1191;-77
2022/10/29 00:20:03;;;;;;;389.97;205.30;;;;;;;11.73;68.46;100784.47;348959;28;1353;-77
2022/10/29 00:20:13;;;;;;;390.10;201.90;;;;;;;11.74;68.57;100786.19;350512;28;888;-77
2022/10/29 00:20:24;;;;;;;382.53;198.43;;;;;;;11.74;68.83;100789.69;347478;28;925;-77
2022/10/29 00:20:34;;;;;;;383.58;203.13;;;;;;;11.76;68.35;100787.00;347646;28;1394;-77
2022/10/29 00:20:45;;;;;;;386.47;209.83;;;;;;;11.77;68.63;100786.16;348972;28;1230;-77
2022/10/29 00:21:02;;;;;;;386.33;211.20;;;;;;;11.77;68.32;100786.16;347972;28;1412;-77
2022/10/29 00:21:23;;;;;;;386.82;210.16;;;;;;;11.78;68.35;100782.63;347537;28;1297;-78
2022/10/29 00:21:33;;;;;;;388.45;214.93;;;;;;;11.75;68.33;100783.53;346245;28;1301;-77
2022/10/29 00:21:44;;;;;;;388.63;214.10;;;;;;;11.75;68.49;100782.66;343515;28;1220;-77
2022/10/29 00:21:54;;;;;;;390.50;210.13;;;;;;;11.75;68.64;100788.78;345006;28;858;-77
2022/10/29 00:22:05;;;;;;;390.70;209.60;;;;;;;11.76;68.52;100789.63;344846;28;1303;-77
2022/10/29 00:22:15;;;;;;;391.10;212.07;;;;;;;11.74;68.71;100788.81;345137;28;934;-77
2022/10/29 00:22:26;;;;;;;394.27;219.23;;;;;;;11.74;68.71;100788.81;343562;28;1308;-78
2022/10/29 00:22:36;;;;;;;391.50;217.30;;;;;;;11.73;68.33;100787.97;342223;28;1288;-77
2022/10/29 00:22:47;;;;;;;389.52;217.20;;;;;;;11.72;68.82;100786.22;338034;29;1886;-77
2022/10/29 00:22:57;;;;;;;387.07;211.93;;;;;;;11.72;68.38;100788.00;340810;28;2734;-77
2022/10/29 00:23:07;;;;;;;386.05;210.02;;;;;;;11.72;68.68;100790.63;340419;28;2835;-77
2022/10/29 00:23:18;;;;;;;387.03;213.93;;;;;;;11.74;68.51;100792.31;340987;29;890;-77
2022/10/29 00:23:28;;;;;;;387.08;215.25;;;;;;;11.74;68.40;100788.81;341681;28;1158;-78
2022/10/29 00:23:39;;;;;;;387.40;218.43;;;;;;;11.74;68.61;100788.81;340450;28;1331;-78
2022/10/29 00:23:49;;;;;;;387.90;216.25;;;;;;;11.74;68.68;100792.31;339601;29;1206;-78
2022/10/29 00:24:00;;;;;;;390.13;217.53;;;;;;;11.74;68.51;100780.94;339451;29;1206;-78
2022/10/29 00:24:10;;;;;;;390.45;216.98;;;;;;;11.76;68.64;100784.38;341048;29;1060;-77
2022/10/29 00:24:20;;;;;;;392.47;218.63;;;;;;;11.76;68.58;100793.13;338313;29;1241;-77
2022/10/29 00:24:31;;;;;;;396.80;219.48;;;;;;;11.76;68.55;100784.38;341013;29;1282;-77
2022/10/29 00:24:41;;;;;;;396.93;219.10;;;;;;;11.76;68.19;100789.63;344631;28;1894;-77
2022/10/29 00:24:52;;;;;;;395.90;214.55;;;;;;;11.75;68.66;100794.03;344775;28;1433;-77
2022/10/29 00:25:02;;;;;;;388.97;211.77;;;;;;;11.73;68.69;100790.59;343578;28;1287;-77
2022/10/29 00:25:12;;;;;;;386.45;208.80;;;;;;;11.74;68.63;100786.19;345000;28;1375;-77
2022/10/29 00:25:23;;;;;;;385.33;211.37;;;;;;;11.74;68.66;100784.44;346038;28;1215;-77
2022/10/29 00:25:33;;;;;;;384.63;209.77;;;;;;;11.73;68.67;100787.09;342252;28;1198;-77
2022/10/29 00:25:44;;;;;;;385.00;209.33;;;;;;;11.72;68.56;100788.84;339348;29;1174;-77
2022/10/29 00:25:58;;;;;;;382.75;205.75;;;;;;;11.71;68.50;100784.50;338513;29;1446;-77
2022/10/29 00:26:08;;;;;;;381.85;204.60;;;;;;;11.71;68.71;100786.28;336540;29;1545;-78
2022/10/29 00:26:19;;;;;;;384.42;210.65;;;;;;;11.72;68.79;100785.38;342259;28;1571;-78
2022/10/29 00:26:30;;;;;;;385.15;212.60;;;;;;;11.69;68.71;100788.09;338468;29;1305;-78
2022/10/29 00:26:40;;;;;;;385.60;210.13;;;;;;;11.68;68.79;100786.38;337374;29;1353;-78
2022/10/29 00:26:51;;;;;;;383.33;203.27;;;;;;;11.68;68.45;100786.38;338292;29;1248;-78
2022/10/29 00:27:01;;;;;;;383.13;200.20;;;;;;;11.65;68.76;100788.19;343336;28;1418;-77
2022/10/29 00:27:11;;;;;;;385.97;203.00;;;;;;;11.68;68.92;100791.63;342060;28;1945;-77
2022/10/29 00:27:22;;;;;;;389.50;209.93;;;;;;;11.68;68.67;100786.38;341891;28;1943;-77
2022/10/29 00:27:32;;;;;;;390.57;216.70;;;;;;;11.67;68.73;100780.28;340837;28;1244;-77
2022/10/29 00:27:43;;;;;;;389.48;219.23;;;;;;;11.67;68.73;100782.91;340912;28;1497;-77
2022/10/29 00:27:55;;;;;;;387.87;214.80;;;;;;;11.66;68.79;100784.66;337233;29;1844;-77
2022/10/29 00:28:05;;;;;;;387.13;209.95;;;;;;;11.65;68.83;100782.94;335650;29;1307;-77
2022/10/29 00:28:16;;;;;;;384.27;205.15;;;;;;;11.68;68.58;100783.75;340555;29;1561;-77
2022/10/29 00:28:26;;;;;;;383.27;209.37;;;;;;;11.70;68.58;100784.59;336902;29;1333;-78
2022/10/29 00:28:37;;;;;;;385.83;210.73;;;;;;;11.70;68.48;100781.97;335516;29;1508;-77
2022/10/29 00:28:51;;;;;;;387.00;212.70;;;;;;;11.71;68.48;100784.50;335658;29;1420;-77
2022/10/29 00:29:02;;;;;;;384.52;208.23;;;;;;;11.68;68.72;100786.38;333126;29;1354;-77
2022/10/29 00:29:12;;;;;;;382.63;201.90;;;;;;;11.68;68.88;100783.75;332194;29;2566;-77
2022/10/29 00:29:22;;;;;;;384.47;204.23;;;;;;;11.68;68.70;100783.75;329002;29;2299;-77
2022/10/29 00:29:33;;;;;;;389.25;208.52;;;;;;;11.66;68.74;100781.19;326798;30;1244;-77
2022/10/29 00:29:43;;;;;;;388.87;205.87;;;;;;;11.64;68.61;100780.38;327217;30;2153;-77
2022/10/29 00:29:54;;;;;;;388.60;207.23;;;;;;;11.65;68.64;100782.09;326385;30;2302;-77
2022/10/29 00:30:05;;;;;;;384.60;203.23;;;;;;;11.65;68.76;100777.69;323382;30;1243;-77
2022/10/29 00:30:15;;;;;;;384.50;204.50;;;;;;;11.63;68.64;100774.25;327468;30;2424;-77
2022/10/29 00:30:26;;;;;;;385.48;197.75;;;;;;;11.64;68.96;100780.38;329763;29;1674;-77
2022/10/29 00:30:36;;;;;;;386.37;200.33;;;;;;;11.62;68.67;100783.03;326868;30;1659;-77
2022/10/29 00:30:46;;;;;;;387.60;199.73;;;;;;;11.64;68.79;100780.38;324559;30;1357;-77
2022/10/29 00:31:01;;;;;;;385.37;204.63;;;;;;;11.62;68.83;100785.66;325855;30;2208;-77
2022/10/29 00:31:15;;;;;;;385.02;204.27;;;;;;;11.62;68.58;100776.91;322321;30;2577;-78
2022/10/29 00:31:25;;;;;;;383.00;204.43;;;;;;;11.64;68.80;100775.97;320026;30;2842;-78
2022/10/29 00:31:35;;;;;;;385.42;208.55;;;;;;;11.63;68.44;100774.25;320127;30;1338;-77
2022/10/29 00:31:48;;;;;;;384.47;205.90;;;;;;;11.64;68.57;100781.22;318902;30;3238;-78
2022/10/29 00:31:58;;;;;;;384.85;205.05;;;;;;;11.64;68.71;100777.75;319903;30;3585;-78
2022/10/29 00:32:09;;;;;;;389.67;209.00;;;;;;;11.65;68.85;100777.69;318462;30;3005;-78
2022/10/29 00:32:19;;;;;;;391.80;213.87;;;;;;;11.64;68.69;100769.88;314930;31;3238;-78
2022/10/29 00:32:29;;;;;;;392.40;213.47;;;;;;;11.64;69.10;100775.13;314501;31;2883;-78
2022/10/29 00:32:40;;;;;;;387.37;208.67;;;;;;;11.62;68.80;100771.69;313086;31;2582;-78
2022/10/29 00:32:50;;;;;;;388.83;211.40;;;;;;;11.62;68.67;100775.16;310765;31;1413;-78
2022/10/29 00:33:00;;;;;;;388.17;212.93;;;;;;;11.61;68.56;100770.81;312510;31;2303;-77
2022/10/29 00:33:11;;;;;;;388.65;209.70;;;;;;;11.63;68.50;100773.41;314055;31;2678;-77
2022/10/29 00:33:22;;;;;;;391.10;208.85;;;;;;;11.62;68.63;100772.53;310907;31;3297;-77
2022/10/29 00:33:32;;;;;;;394.03;207.10;;;;;;;11.63;68.62;100776.03;308741;32;1041;-77
2022/10/29 00:33:43;;;;;;;396.20;208.05;;;;;;;11.65;68.51;100775.06;304442;31;4068;-77
2022/10/29 00:33:54;;;;;;;394.63;209.13;;;;;;;11.64;68.66;100770.72;304252;31;4609;-77
2022/10/29 00:34:04;;;;;;;395.48;212.05;;;;;;;11.68;68.57;100776.75;308695;32;1168;-77
2022/10/29 00:34:14;;;;;;;396.10;212.25;;;;;;;11.68;68.39;100775.91;301857;32;4208;-77
2022/10/29 00:34:25;;;;;;;396.30;214.03;;;;;;;11.68;68.49;100773.28;300471;32;4445;-77
2022/10/29 00:34:36;;;;;;;393.47;209.23;;;;;;;11.65;68.33;100772.44;303074;32;1149;-77
2022/10/29 00:34:46;;;;;;;395.77;211.38;;;;;;;11.66;68.59;100779.41;298049;33;1501;-77
2022/10/29 00:34:57;;;;;;;393.83;209.13;;;;;;;11.68;68.32;100771.50;295107;33;3094;-77
2022/10/29 00:35:08;;;;;;;398.40;211.93;;;;;;;11.70;68.29;100766.22;295359;33;2910;-77
2022/10/29 00:35:18;;;;;;;394.53;208.57;;;;;;;11.70;68.40;100767.06;298240;33;838;-77
2022/10/29 00:35:28;;;;;;;398.55;215.00;;;;;;;11.73;68.14;100773.97;295270;33;4055;-77
2022/10/29 00:35:39;;;;;;;395.87;217.13;;;;;;;11.73;68.07;100774.84;293783;33;5275;-77
2022/10/29 00:35:56;;;;;;;397.17;218.32;;;;;;;11.72;68.20;100773.13;293252;33;1135;-77
2022/10/29 00:36:13;;;;;;;396.83;218.02;;;;;;;11.70;68.36;100774.09;290163;33;6426;-79
2022/10/29 00:36:25;;;;;;;400.40;221.10;;;;;;;11.68;68.56;100770.66;294068;33;6747;-78
2022/10/29 00:36:36;;;;;;;399.90;219.45;;;;;;;11.68;68.45;100774.13;292485;33;1265;-78
2022/10/29 00:36:46;;;;;;;400.70;217.90;;;;;;;11.69;68.30;100772.38;288201;34;5831;-78
2022/10/29 00:36:56;;;;;;;400.17;215.23;;;;;;;11.70;68.32;100774.09;288319;34;6113;-78
2022/10/29 00:37:07;;;;;;;400.10;215.98;;;;;;;11.68;68.50;100771.50;287123;34;4832;-78
2022/10/29 00:37:17;;;;;;;397.57;214.10;;;;;;;11.66;68.54;100774.19;284587;34;1261;-77
2022/10/29 00:37:27;;;;;;;393.73;214.68;;;;;;;11.66;68.73;100768.06;281800;34;4578;-77
2022/10/29 00:37:39;;;;;;;397.27;218.10;;;;;;;11.70;68.34;100774.09;279554;34;6499;-77
2022/10/29 00:37:50;;;;;;;398.98;219.18;;;;;;;11.69;68.36;100772.38;283783;34;1344;-77
2022/10/29 00:38:00;;;;;;;402.73;219.63;;;;;;;11.69;68.45;100770.63;281347;34;8012;-78
2022/10/29 00:38:10;;;;;;;401.77;216.90;;;;;;;11.69;68.38;100772.38;278238;35;8848;-78
2022/10/29 00:38:21;;;;;;;403.87;216.70;;;;;;;11.70;68.24;100771.47;278465;35;969;-78
2022/10/29 00:40:13;;;;;;;390.48;188.98;;;;;;;11.65;68.72;100777.69;2498869;27;20479;-78
2022/10/29 00:40:24;;;;;;;391.83;203.50;;;;;;;11.63;68.80;100769.00;352648;28;1368;-78
2022/10/29 00:40:36;;;;;;;395.23;207.32;;;;;;;11.63;68.73;100769.00;349052;28;1370;-77
2022/10/29 00:40:46;;;;;;;397.75;208.13;;;;;;;11.63;68.56;100771.63;350408;28;1337;-77
2022/10/29 00:40:57;;;;;;;396.73;207.67;;;;;;;11.62;68.64;100774.28;348978;28;1238;-77
2022/10/29 00:41:09;;;;;;;396.17;211.00;;;;;;;11.59;68.51;100767.38;349008;28;1231;-77
2022/10/29 00:41:22;;;;;;;390.92;208.52;;;;;;;11.58;68.74;100768.28;346327;28;2996;-77
2022/10/29 00:41:32;;;;;;;392.48;209.95;;;;;;;11.57;68.67;100766.56;348190;28;3160;-77
2022/10/29 00:41:42;;;;;;;390.73;210.17;;;;;;;11.54;68.68;100769.25;349533;28;1850;-77
2022/10/29 00:41:53;;;;;;;389.73;207.80;;;;;;;11.51;68.73;100774.56;347762;28;3121;-77
2022/10/29 00:42:03;;;;;;;388.33;208.67;;;;;;;11.52;68.67;100771.06;348508;28;1808;-77
2022/10/29 00:42:14;;;;;;;386.90;208.45;;;;;;;11.53;69.02;100767.53;348973;28;1387;-78
2022/10/29 00:42:25;;;;;;;386.95;208.73;;;;;;;11.56;68.77;100771.84;344962;28;915;-77
2022/10/29 00:42:35;;;;;;;388.58;209.68;;;;;;;11.56;68.70;100769.22;344761;28;1348;-77
2022/10/29 00:42:46;;;;;;;390.90;210.80;;;;;;;11.56;68.64;100777.94;344820;28;1221;-77
2022/10/29 00:43:15;;;;;;;390.42;209.70;;;;;;;11.57;68.67;100771.78;346009;28;1256;-79
2022/10/29 00:43:26;;;;;;;392.20;206.40;;;;;;;11.56;68.47;100767.44;344974;28;1344;-78
2022/10/29 00:43:37;;;;;;;393.27;210.95;;;;;;;11.58;68.61;100776.13;345599;28;1225;-78
2022/10/29 00:43:49;;;;;;;385.50;206.85;;;;;;;11.58;68.61;100765.66;346288;28;939;-78
2022/10/29 00:44:19;;;;;;;387.67;207.55;;;;;;;11.62;68.55;100769.91;344851;28;1418;-77
2022/10/29 00:44:37;;;;;;;392.63;201.85;;;;;;;11.63;68.41;100765.53;343586;28;889;-78
2022/10/29 00:44:47;;;;;;;393.75;205.45;;;;;;;11.65;68.38;100771.59;343487;28;1272;-78
2022/10/29 00:44:58;;;;;;;388.25;200.75;;;;;;;11.65;68.40;100769.84;344997;28;798;-78
2022/10/29 00:45:16;;;;;;;385.90;197.57;;;;;;;11.63;68.66;100769.00;342355;28;806;-78
2022/10/29 00:45:27;;;;;;;385.80;197.77;;;;;;;11.62;68.39;100767.28;342342;28;932;-78
2022/10/29 00:45:39;;;;;;;383.42;197.75;;;;;;;11.64;68.29;100775.97;342353;28;925;-78
2022/10/29 00:46:10;;;;;;;384.63;196.80;;;;;;;11.66;68.27;100771.56;346187;28;1386;-77
2022/10/29 00:46:29;;;;;;;393.10;207.25;;;;;;;11.64;68.53;100770.72;342461;28;922;-77
2022/10/29 00:46:44;;;;;;;391.20;207.30;;;;;;;11.61;68.80;100765.56;344899;28;1519;-78
2022/10/29 00:47:12;;;;;;;392.15;212.23;;;;;;;11.61;68.53;100765.56;343517;28;1254;-78
2022/10/29 00:47:26;;;;;;;393.05;199.52;;;;;;;11.57;68.89;100771.78;338296;29;1285;-78
2022/10/29 00:47:36;;;;;;;395.58;203.20;;;;;;;11.57;68.58;100765.69;337053;29;954;-78
2022/10/29 00:47:48;;;;;;;390.75;203.52;;;;;;;11.57;68.83;100774.41;339328;29;1901;-77
2022/10/29 00:47:59;;;;;;;391.05;203.10;;;;;;;11.58;68.55;100770.91;333296;29;1264;-78
2022/10/29 00:48:09;;;;;;;389.83;205.87;;;;;;;11.56;68.71;100772.69;335194;29;1302;-78
2022/10/29 00:48:20;;;;;;;386.98;204.55;;;;;;;11.56;68.66;100766.59;333256;29;1510;-78
2022/10/29 00:48:32;;;;;;;385.27;208.45;;;;;;;11.55;68.61;100770.97;331937;29;1232;-78
2022/10/29 00:48:47;;;;;;;388.00;210.43;;;;;;;11.56;68.48;100767.44;330813;29;1009;-78
2022/10/29 00:48:58;;;;;;;390.48;210.35;;;;;;;11.57;68.45;100768.31;333209;29;1279;-77
2022/10/29 00:49:08;;;;;;;388.65;209.23;;;;;;;11.56;68.58;100771.84;332446;29;1330;-77
2022/10/29 00:49:19;;;;;;;388.97;207.97;;;;;;;11.52;68.71;100773.66;332225;29;1160;-77
2022/10/29 00:49:30;;;;;;;384.42;204.73;;;;;;;11.53;68.78;100772.78;334545;29;938;-78
2022/10/29 00:49:41;;;;;;;387.20;203.40;;;;;;;11.52;68.70;100773.66;334439;29;1013;-78
2022/10/29 00:50:00;;;;;;;388.17;206.60;;;;;;;11.50;68.65;100767.59;334352;29;1065;-78
2022/10/29 00:50:11;;;;;;;384.92;207.93;;;;;;;11.50;68.22;100767.59;333792;29;1532;-78
2022/10/29 00:50:22;;;;;;;387.40;211.05;;;;;;;11.48;68.66;100766.78;332340;29;1652;-78
2022/10/29 00:50:32;;;;;;;386.37;208.80;;;;;;;11.48;68.69;100769.41;327898;29;2686;-78
2022/10/29 00:50:43;;;;;;;388.95;208.65;;;;;;;11.48;68.30;100773.78;329375;30;1615;-78
2022/10/29 00:50:53;;;;;;;387.53;207.60;;;;;;;11.49;68.45;100765.88;329158;29;2196;-78
2022/10/29 00:51:04;;;;;;;392.88;212.82;;;;;;;11.51;68.54;100769.34;329253;29;2187;-78
2022/10/29 00:51:15;;;;;;;393.02;211.63;;;;;;;11.53;68.31;100770.16;327913;30;1510;-78
2022/10/29 00:51:25;;;;;;;390.33;207.93;;;;;;;11.54;68.68;100766.63;331230;29;1800;-77
2022/10/29 00:51:36;;;;;;;389.33;204.65;;;;;;;11.55;68.25;100770.13;331730;29;1855;-77
2022/10/29 00:51:46;;;;;;;388.63;203.60;;;;;;;11.56;68.35;100769.22;333120;29;1380;-77
2022/10/29 00:51:57;;;;;;;389.40;204.55;;;;;;;11.55;68.29;100762.25;329511;29;1370;-77
2022/10/29 00:52:08;;;;;;;387.25;203.43;;;;;;;11.55;68.22;100765.72;329637;29;1865;-77
2022/10/29 00:52:19;;;;;;;388.80;204.90;;;;;;;11.57;68.39;100773.56;328754;29;2473;-77
2022/10/29 00:52:30;;;;;;;390.98;204.45;;;;;;;11.56;68.56;100770.06;333111;29;1326;-77
2022/10/29 00:52:43;;;;;;;394.95;206.45;;;;;;;11.55;68.45;100757.88;330151;29;2332;-77
2022/10/29 00:52:54;;;;;;;393.70;205.45;;;;;;;11.58;68.62;100770.03;327558;30;2480;-77
2022/10/29 00:53:04;;;;;;;390.50;204.48;;;;;;;11.57;68.39;100769.16;328542;29;2541;-77
2022/10/29 00:53:15;;;;;;;390.47;205.13;;;;;;;11.56;68.54;100764.81;328351;30;913;-77
2022/10/29 00:53:27;;;;;;;384.52;202.48;;;;;;;11.58;68.55;100765.66;328146;30;2490;-77
2022/10/29 00:53:42;;;;;;;383.15;200.57;;;;;;;11.54;68.57;100760.53;328127;30;1879;-79
2022/10/29 00:54:01;;;;;;;385.27;200.27;;;;;;;11.48;68.87;100764.16;328506;30;1661;-78
2022/10/29 00:54:12;;;;;;;388.08;202.10;;;;;;;11.46;68.80;100765.97;323046;30;2772;-77
2022/10/29 00:54:23;;;;;;;390.10;202.68;;;;;;;11.46;68.75;100763.34;321163;30;2551;-77
2022/10/29 00:54:34;;;;;;;388.10;203.43;;;;;;;11.45;68.79;100764.25;321799;30;2631;-77
2022/10/29 00:54:44;;;;;;;388.67;200.85;;;;;;;11.43;68.90;100771.28;324601;30;1315;-77
2022/10/29 00:54:55;;;;;;;388.47;206.17;;;;;;;11.41;69.15;100767.84;322017;30;3135;-77
2022/10/29 00:55:06;;;;;;;389.98;210.70;;;;;;;11.40;69.00;100765.25;321865;30;3830;-77